Time;durP1;ratioP1;P1;durP2;ratioP2;P2;SDS_P1;SDS_P2;PMS_P1;PMS_P2;Temp;Humidity;BMP_temperature;BMP_pressure;BME280_temperature;BME280_humidity;BME280_pressure;Samples;Min_cycle;Max_cycle;Signal;HPM_P1;HPM_P2
2022/09/29 00:00:13;;;;;;;8.17;6.30;;;9.80;99.90;;;;;;5074876;28;20489;-84
2022/09/29 00:02:40;;;;;;;11.63;7.10;;;9.80;99.90;;;;;;5074743;28;20444;-85
2022/09/29 00:05:07;;;;;;;8.87;7.10;;;9.90;99.90;;;;;;5074799;28;20482;-84
2022/09/29 00:07:36;;;;;;;7.87;6.27;;;9.80;99.90;;;;;;5075174;28;20456;-84
2022/09/29 00:10:03;;;;;;;8.70;7.60;;;9.80;99.90;;;;;;5075915;28;20459;-85
2022/09/29 00:12:30;;;;;;;8.93;7.77;;;9.80;99.90;;;;;;5075202;28;20478;-84
2022/09/29 00:14:57;;;;;;;12.90;9.57;;;9.80;99.90;;;;;;5075098;28;20471;-84
2022/09/29 00:17:23;;;;;;;9.23;8.33;;;9.80;99.90;;;;;;5074553;28;20487;-84
2022/09/29 00:19:50;;;;;;;12.90;7.47;;;9.80;99.90;;;;;;5074960;28;20839;-84
2022/09/29 00:22:17;;;;;;;9.90;8.83;;;9.90;99.90;;;;;;5074951;28;20435;-84
2022/09/29 00:24:47;;;;;;;13.03;7.80;;;9.90;99.90;;;;;;5074420;28;20467;-84
2022/09/29 00:27:14;;;;;;;8.40;7.53;;;9.90;99.90;;;;;;5074542;28;20929;-84
2022/09/29 00:29:41;;;;;;;9.50;7.10;;;9.90;99.90;;;;;;5079966;28;20447;-83
2022/09/29 00:32:08;;;;;;;8.50;7.47;;;9.80;99.90;;;;;;5092269;28;20448;-83
2022/09/29 00:34:34;;;;;;;14.47;7.30;;;9.80;99.90;;;;;;5083069;28;20972;-83
2022/09/29 00:37:01;;;;;;;10.30;7.10;;;9.80;99.90;;;;;;5092991;28;20490;-84
2022/09/29 00:39:28;;;;;;;13.50;7.97;;;9.80;99.90;;;;;;5093514;28;20451;-84
2022/09/29 00:41:56;;;;;;;9.00;7.60;;;9.90;99.90;;;;;;5076649;28;20448;-84
2022/09/29 00:44:54;;;;;;;12.97;9.10;;;9.90;99.90;;;;;;5073872;28;20498;-84
2022/09/29 00:47:22;;;;;;;13.50;9.13;;;9.90;99.90;;;;;;5075025;28;20841;-86
2022/09/29 00:49:53;;;;;;;11.50;9.07;;;9.90;99.90;;;;;;5074114;28;20964;-86
2022/09/29 00:52:24;;;;;;;11.83;9.80;;;9.90;99.90;;;;;;5073937;28;20451;-86
2022/09/29 00:54:56;;;;;;;12.60;9.67;;;9.90;99.90;;;;;;5073984;28;20819;-86
2022/09/29 00:57:27;;;;;;;12.80;9.27;;;9.80;99.90;;;;;;5073775;28;20483;-85
2022/09/29 01:00:00;;;;;;;13.57;9.20;;;9.80;99.90;;;;;;5073960;28;20455;-86
2022/09/29 01:02:28;;;;;;;19.20;9.07;;;9.80;99.90;;;;;;5073963;28;20448;-86
2022/09/29 01:04:56;;;;;;;11.30;8.73;;;9.80;99.90;;;;;;5073577;28;20558;-85
2022/09/29 01:07:24;;;;;;;12.83;9.73;;;9.80;99.90;;;;;;5077537;28;20436;-86
2022/09/29 01:09:52;;;;;;;11.63;8.83;;;9.80;99.90;;;;;;5074527;28;20441;-86
2022/09/29 01:12:20;;;;;;;12.50;9.10;;;9.80;99.90;;;;;;5073409;28;20471;-86
2022/09/29 01:14:48;;;;;;;12.30;9.87;;;9.80;99.90;;;;;;5074020;28;20475;-86
2022/09/29 01:17:16;;;;;;;13.53;8.40;;;9.80;99.90;;;;;;5073818;28;20487;-86
2022/09/29 01:19:57;;;;;;;13.60;8.30;;;9.90;99.90;;;;;;5072956;28;20476;-87
2022/09/29 01:22:51;;;;;;;9.00;7.70;;;9.80;99.90;;;;;;5073668;28;20523;-86
2022/09/29 01:25:50;;;;;;;14.90;8.77;;;9.90;99.90;;;;;;5038493;28;20471;-86
2022/09/29 01:28:38;;;;;;;8.80;7.90;;;9.80;99.90;;;;;;5072766;28;20856;-86
2022/09/29 01:31:18;;;;;;;10.20;8.90;;;9.90;99.90;;;;;;5084699;28;20408;-86
2022/09/29 01:33:52;;;;;;;9.43;8.40;;;9.90;99.90;;;;;;5097786;28;20455;-86
2022/09/29 01:36:30;;;;;;;11.57;9.23;;;9.90;99.90;;;;;;5093685;28;20818;-86
2022/09/29 01:39:10;;;;;;;8.83;7.90;;;9.90;99.90;;;;;;5073719;28;20471;-86
2022/09/29 01:41:43;;;;;;;11.07;8.97;;;9.90;99.90;;;;;;5073155;28;20459;-86
2022/09/29 01:44:18;;;;;;;11.90;8.20;;;9.90;99.90;;;;;;5072560;28;20460;-86
2022/09/29 01:46:50;;;;;;;15.03;9.63;;;10.00;99.90;;;;;;5074097;28;20443;-86
2022/09/29 01:49:19;;;;;;;11.07;7.70;;;10.00;99.90;;;;;;5091128;28;20455;-87
2022/09/29 01:51:53;;;;;;;14.23;8.80;;;10.00;99.90;;;;;;5083971;28;20436;-86
2022/09/29 01:54:27;;;;;;;10.57;9.30;;;10.00;99.90;;;;;;5078196;28;20464;-86
2022/09/29 01:57:00;;;;;;;7.90;7.10;;;10.00;99.90;;;;;;5071686;28;20487;-86
2022/09/29 01:59:33;;;;;;;12.37;7.80;;;10.10;99.90;;;;;;5071607;28;20451;-86
2022/09/29 02:02:07;;;;;;;12.60;8.20;;;10.10;99.90;;;;;;5072481;28;20451;-86
2022/09/29 02:04:38;;;;;;;10.57;8.37;;;10.10;99.90;;;;;;5072152;28;20479;-86
2022/09/29 02:07:10;;;;;;;11.77;8.93;;;10.10;99.90;;;;;;5081636;28;20423;-86
2022/09/29 02:09:40;;;;;;;9.70;7.63;;;10.10;99.90;;;;;;5097884;28;20428;-86
2022/09/29 02:12:10;;;;;;;10.90;8.10;;;10.10;99.90;;;;;;5094019;28;20439;-86
2022/09/29 02:14:41;;;;;;;9.10;7.77;;;10.10;99.90;;;;;;5097318;28;20460;-87
2022/09/29 02:17:12;;;;;;;12.10;8.43;;;10.10;99.90;;;;;;5087889;28;20542;-87
2022/09/29 02:19:42;;;;;;;15.70;10.00;;;10.10;99.90;;;;;;5073217;28;20455;-86
2022/09/29 02:22:09;;;;;;;13.83;8.57;;;10.10;99.90;;;;;;5077742;28;20447;-86
2022/09/29 02:24:39;;;;;;;11.20;9.20;;;10.10;99.90;;;;;;5073187;28;20475;-86
2022/09/29 02:27:06;;;;;;;12.10;8.73;;;10.10;99.90;;;;;;5072403;28;20439;-87
2022/09/29 02:29:34;;;;;;;11.03;9.10;;;10.20;99.90;;;;;;5072593;28;20557;-86
2022/09/29 02:32:02;;;;;;;8.87;7.93;;;10.20;99.90;;;;;;5073145;28;20440;-86
2022/09/29 02:34:33;;;;;;;10.80;7.60;;;10.20;99.90;;;;;;5072782;28;20472;-86
2022/09/29 02:37:07;;;;;;;7.97;7.00;;;10.20;99.90;;;;;;5071318;28;20484;-86
2022/09/29 02:39:42;;;;;;;11.03;8.30;;;10.10;99.90;;;;;;5071305;28;20457;-86
2022/09/29 02:42:23;;;;;;;10.40;8.37;;;10.10;99.90;;;;;;5072154;28;20446;-86
2022/09/29 02:45:23;;;;;;;11.20;7.63;;;10.10;99.90;;;;;;5071827;28;20463;-86
2022/09/29 02:48:12;;;;;;;10.13;7.77;;;10.20;99.90;;;;;;5078222;28;20440;-86
2022/09/29 02:50:51;;;;;;;11.77;7.53;;;10.20;99.90;;;;;;5095434;28;20447;-87
2022/09/29 02:53:27;;;;;;;8.80;7.97;;;10.20;99.90;;;;;;5076443;28;20754;-86
2022/09/29 02:55:59;;;;;;;11.03;8.47;;;10.20;99.90;;;;;;5072176;28;20455;-86
2022/09/29 02:58:30;;;;;;;11.90;8.30;;;10.20;99.90;;;;;;5081429;28;20459;-86
2022/09/29 03:00:58;;;;;;;10.50;8.07;;;10.20;99.90;;;;;;5077956;28;20822;-86
2022/09/29 03:03:25;;;;;;;11.43;7.37;;;10.20;99.90;;;;;;5070727;28;20762;-86
2022/09/29 03:05:53;;;;;;;12.87;7.80;;;10.10;99.90;;;;;;5071950;28;20528;-86
2022/09/29 03:08:20;;;;;;;8.90;7.60;;;10.20;99.90;;;;;;5072129;28;20444;-86
2022/09/29 03:10:47;;;;;;;8.90;8.00;;;10.10;99.90;;;;;;5072395;28;20446;-85
2022/09/29 03:13:13;;;;;;;9.43;7.80;;;10.20;99.90;;;;;;5072055;28;20443;-86
2022/09/29 03:15:40;;;;;;;9.93;8.03;;;10.10;99.90;;;;;;5071709;28;20452;-86
2022/09/29 03:18:07;;;;;;;10.93;8.00;;;10.10;99.90;;;;;;5072275;28;20883;-86
2022/09/29 03:20:34;;;;;;;11.50;8.70;;;10.10;99.90;;;;;;5071668;28;20447;-86
2022/09/29 03:23:02;;;;;;;10.77;9.27;;;10.10;99.90;;;;;;5072375;28;20448;-86
2022/09/29 03:25:28;;;;;;;10.50;8.40;;;10.10;99.90;;;;;;5084682;28;20451;-86
2022/09/29 03:27:55;;;;;;;9.63;8.53;;;10.10;99.90;;;;;;5093544;28;20436;-85
2022/09/29 03:30:22;;;;;;;10.60;9.43;;;10.10;99.90;;;;;;5072441;28;20452;-86
2022/09/29 03:32:49;;;;;;;10.87;9.70;;;10.10;99.90;;;;;;5071794;28;21022;-86
2022/09/29 03:35:16;;;;;;;12.17;9.83;;;10.00;99.90;;;;;;5071658;28;20468;-86
2022/09/29 03:37:42;;;;;;;14.80;9.20;;;10.00;99.90;;;;;;5071458;28;20913;-87
2022/09/29 03:40:11;;;;;;;12.93;9.93;;;9.80;99.90;;;;;;5071547;28;20448;-85
2022/09/29 03:42:38;;;;;;;15.57;10.77;;;9.80;99.90;;;;;;5071188;28;20439;-86
2022/09/29 03:45:06;;;;;;;14.43;10.90;;;9.70;99.90;;;;;;5070383;28;20468;-88
2022/09/29 03:47:32;;;;;;;11.33;10.13;;;9.60;99.90;;;;;;5073592;28;20443;-86
2022/09/29 03:49:59;;;;;;;12.70;10.23;;;9.60;99.90;;;;;;5087576;28;20963;-86
2022/09/29 03:52:26;;;;;;;14.90;12.00;;;9.50;99.90;;;;;;5082238;28;20439;-85
2022/09/29 03:54:52;;;;;;;13.57;10.67;;;9.40;99.90;;;;;;5079055;28;20463;-86
2022/09/29 03:57:20;;;;;;;13.57;10.83;;;9.30;99.90;;;;;;5094221;28;20495;-86
2022/09/29 03:59:47;;;;;;;16.40;11.67;;;9.20;99.90;;;;;;5092721;28;20436;-86
2022/09/29 04:02:17;;;;;;;16.30;10.50;;;9.20;99.90;;;;;;5085097;28;20451;-86
2022/09/29 04:04:44;;;;;;;19.50;11.80;;;9.10;99.90;;;;;;5084145;28;20472;-87
2022/09/29 04:07:10;;;;;;;13.40;11.43;;;9.10;99.90;;;;;;5064785;28;20440;-87
2022/09/29 04:09:38;;;;;;;13.83;11.80;;;9.10;99.90;;;;;;5079758;28;20543;-87
2022/09/29 04:12:05;;;;;;;16.43;12.87;;;9.00;99.90;;;;;;5080619;28;20432;-86
2022/09/29 04:14:33;;;;;;;16.17;11.20;;;9.10;99.90;;;;;;5064687;28;20559;-87
2022/09/29 04:17:00;;;;;;;18.13;11.97;;;9.00;99.90;;;;;;5062330;28;20845;-86
2022/09/29 04:19:26;;;;;;;19.53;12.70;;;8.90;99.90;;;;;;5061274;28;20440;-87
2022/09/29 04:21:53;;;;;;;14.40;11.97;;;8.90;99.90;;;;;;5056980;28;20444;-87
2022/09/29 04:24:20;;;;;;;15.00;11.40;;;8.90;99.90;;;;;;5059812;28;20876;-85
2022/09/29 04:26:46;;;;;;;19.23;12.00;;;8.90;99.90;;;;;;5057760;28;20438;-85
2022/09/29 04:29:13;;;;;;;15.60;13.10;;;8.90;99.90;;;;;;5058223;28;20444;-85
2022/09/29 04:31:41;;;;;;;15.97;11.87;;;8.90;99.90;;;;;;5059050;28;20447;-85
2022/09/29 04:34:08;;;;;;;16.97;11.90;;;8.90;99.90;;;;;;5060660;28;20978;-85
2022/09/29 04:36:34;;;;;;;17.27;10.73;;;8.90;99.90;;;;;;5061839;28;20456;-84
2022/09/29 04:39:01;;;;;;;14.73;13.17;;;8.90;99.90;;;;;;5058150;28;20441;-85
2022/09/29 04:41:28;;;;;;;16.30;12.20;;;8.90;99.90;;;;;;5057864;28;20449;-84
2022/09/29 04:43:55;;;;;;;14.50;12.20;;;8.90;99.90;;;;;;5058048;28;20518;-85
2022/09/29 04:46:22;;;;;;;17.43;11.83;;;8.90;99.90;;;;;;5055355;28;20453;-85
2022/09/29 04:48:50;;;;;;;20.00;12.40;;;8.80;99.90;;;;;;5054596;28;20433;-85
2022/09/29 04:51:16;;;;;;;13.97;11.43;;;8.80;99.90;;;;;;5054560;28;20449;-83
2022/09/29 04:53:43;;;;;;;19.13;11.87;;;8.80;99.90;;;;;;5056163;28;20475;-84
2022/09/29 04:56:10;;;;;;;20.53;12.90;;;8.80;99.90;;;;;;5056188;28;20447;-85
2022/09/29 04:58:37;;;;;;;14.03;10.80;;;8.80;99.90;;;;;;5058492;28;20487;-84
2022/09/29 05:01:09;;;;;;;16.63;10.60;;;8.90;99.90;;;;;;5064467;28;20445;-84
2022/09/29 05:03:35;;;;;;;16.90;10.40;;;8.90;99.90;;;;;;5078856;28;20465;-84
2022/09/29 05:06:04;;;;;;;13.27;11.53;;;8.90;99.90;;;;;;5087791;28;20448;-84
2022/09/29 05:08:31;;;;;;;13.40;10.60;;;8.80;99.90;;;;;;5079803;28;20445;-84
2022/09/29 05:10:58;;;;;;;15.73;9.97;;;8.90;99.90;;;;;;5073795;28;20452;-85
2022/09/29 05:13:25;;;;;;;13.80;10.63;;;8.80;99.90;;;;;;5081973;28;20464;-84
2022/09/29 05:15:56;;;;;;;14.77;11.27;;;8.80;99.90;;;;;;5061680;28;20461;-84
2022/09/29 05:18:23;;;;;;;11.57;10.33;;;8.80;99.90;;;;;;5058957;28;20526;-84
2022/09/29 05:20:49;;;;;;;12.93;9.97;;;8.80;99.90;;;;;;5067249;28;20433;-85
2022/09/29 05:23:17;;;;;;;13.83;9.83;;;8.80;99.90;;;;;;5081178;28;20433;-85
2022/09/29 05:25:44;;;;;;;17.07;10.57;;;8.80;99.90;;;;;;5059293;28;20437;-85
2022/09/29 05:28:11;;;;;;;17.27;11.40;;;8.80;99.90;;;;;;5057913;28;20432;-84
2022/09/29 05:30:38;;;;;;;12.13;10.70;;;8.80;99.90;;;;;;5057214;28;20456;-84
2022/09/29 05:33:05;;;;;;;12.33;9.43;;;8.80;99.90;;;;;;5056207;28;20445;-84
2022/09/29 05:35:32;;;;;;;12.53;10.37;;;8.80;99.90;;;;;;5056648;28;20437;-85
2022/09/29 05:37:59;;;;;;;14.40;10.70;;;8.80;99.90;;;;;;5056774;28;20528;-85
2022/09/29 05:40:27;;;;;;;12.67;9.03;;;8.80;99.90;;;;;;5057515;28;20937;-84
2022/09/29 05:42:53;;;;;;;11.30;10.20;;;8.90;99.90;;;;;;5057815;28;20429;-85
2022/09/29 05:45:20;;;;;;;12.50;9.23;;;8.90;99.90;;;;;;5056368;28;20843;-84
2022/09/29 05:47:47;;;;;;;11.80;10.23;;;9.00;99.90;;;;;;5058965;28;20437;-85
2022/09/29 05:50:14;;;;;;;15.10;8.77;;;9.00;99.90;;;;;;5058138;28;20443;-84
2022/09/29 05:52:41;;;;;;;13.93;9.60;;;9.10;99.90;;;;;;5059607;28;20772;-84
2022/09/29 05:55:09;;;;;;;13.00;8.50;;;9.00;99.90;;;;;;5057682;28;20461;-83
2022/09/29 05:57:38;;;;;;;14.20;10.00;;;9.10;99.90;;;;;;5056639;28;20492;-84
2022/09/29 06:00:06;;;;;;;13.20;9.23;;;9.10;99.90;;;;;;5058158;28;20437;-85
2022/09/29 06:02:32;;;;;;;11.90;8.90;;;9.20;99.90;;;;;;5057909;28;20468;-84
2022/09/29 06:04:59;;;;;;;11.60;8.63;;;9.20;99.90;;;;;;5059588;28;21616;-85
2022/09/29 06:07:26;;;;;;;16.27;8.63;;;9.20;99.90;;;;;;5063238;28;20447;-84
2022/09/29 06:09:53;;;;;;;9.40;8.20;;;9.20;99.90;;;;;;5061807;28;20436;-85
2022/09/29 06:12:20;;;;;;;11.00;8.60;;;9.20;99.90;;;;;;5057356;28;20440;-85
2022/09/29 06:14:48;;;;;;;9.50;8.60;;;9.20;99.90;;;;;;5055290;28;20492;-84
2022/09/29 06:17:15;;;;;;;12.27;8.50;;;9.20;99.90;;;;;;5057014;28;20503;-85
2022/09/29 06:19:42;;;;;;;15.43;9.33;;;9.20;99.90;;;;;;5058038;28;20466;-85
2022/09/29 06:22:09;;;;;;;10.90;9.37;;;9.10;99.90;;;;;;5057374;28;20445;-85
2022/09/29 06:24:35;;;;;;;11.03;9.90;;;9.30;99.90;;;;;;5055766;28;20822;-85
2022/09/29 06:27:02;;;;;;;12.60;8.93;;;9.40;99.90;;;;;;5057081;28;20468;-85
2022/09/29 06:29:29;;;;;;;14.87;10.60;;;9.50;99.90;;;;;;5057716;28;20448;-85
2022/09/29 06:31:57;;;;;;;12.30;9.90;;;9.60;99.90;;;;;;5057056;28;20945;-85
2022/09/29 06:34:23;;;;;;;15.53;11.03;;;9.60;99.90;;;;;;5057551;28;20483;-84
2022/09/29 06:39:34;;;;;;;12.53;10.13;;;9.90;99.90;;;;;;5056754;28;20513;-85
2022/09/29 06:42:02;;;;;;;15.20;10.00;;;10.00;99.90;;;;;;5062417;28;20440;-84
2022/09/29 06:44:29;;;;;;;18.63;10.20;;;10.10;99.90;;;;;;5077700;28;20528;-84
2022/09/29 06:46:57;;;;;;;16.77;9.90;;;10.20;99.90;;;;;;5063795;28;20436;-85
2022/09/29 06:49:25;;;;;;;13.73;10.77;;;10.30;99.90;;;;;;5058010;28;21221;-85
2022/09/29 06:51:51;;;;;;;13.87;11.10;;;10.30;99.90;;;;;;5057280;28;20437;-85
2022/09/29 06:54:20;;;;;;;11.27;9.37;;;10.30;99.90;;;;;;5057595;28;20999;-85
2022/09/29 06:56:48;;;;;;;9.47;8.17;;;10.30;99.90;;;;;;5057128;28;20437;-85
2022/09/29 06:59:15;;;;;;;9.17;8.20;;;10.30;99.90;;;;;;5058856;28;20495;-85
2022/09/29 07:01:41;;;;;;;10.93;7.57;;;10.50;99.90;;;;;;5056941;28;20439;-85
2022/09/29 07:04:10;;;;;;;15.30;8.67;;;10.60;99.90;;;;;;5056829;28;20471;-85
2022/09/29 07:06:37;;;;;;;12.80;8.03;;;10.70;99.90;;;;;;5061444;28;20476;-85
2022/09/29 07:09:04;;;;;;;13.23;8.20;;;10.70;99.90;;;;;;5060971;28;20440;-84
2022/09/29 07:11:31;;;;;;;15.00;9.73;;;10.70;99.90;;;;;;5061287;28;20437;-85
2022/09/29 07:13:57;;;;;;;11.50;8.13;;;10.80;99.90;;;;;;5083496;28;20463;-85
2022/09/29 07:16:24;;;;;;;13.00;8.03;;;10.80;99.90;;;;;;5089939;28;20430;-86
2022/09/29 07:18:51;;;;;;;13.50;9.00;;;10.90;99.90;;;;;;5079617;28;20467;-86
2022/09/29 07:21:20;;;;;;;11.90;9.07;;;11.00;99.90;;;;;;5079190;28;20440;-86
2022/09/29 07:23:47;;;;;;;13.37;8.40;;;11.20;99.90;;;;;;5068205;28;20445;-86
2022/09/29 07:26:16;;;;;;;12.30;8.20;;;11.30;99.90;;;;;;5064442;28;20435;-82
2022/09/29 07:28:43;;;;;;;8.40;7.20;;;11.50;99.90;;;;;;5063914;28;20475;-82
2022/09/29 07:31:12;;;;;;;9.67;7.20;;;11.50;99.90;;;;;;5062648;28;20452;-83
2022/09/29 07:33:38;;;;;;;12.63;7.73;;;11.50;99.90;;;;;;5060525;28;20818;-83
2022/09/29 07:36:06;;;;;;;8.23;7.20;;;11.50;99.90;;;;;;5059630;28;20498;-83
2022/09/29 07:38:34;;;;;;;14.10;7.23;;;11.40;99.90;;;;;;5068003;28;20487;-83
2022/09/29 07:41:01;;;;;;;9.00;7.13;;;11.40;99.90;;;;;;5071836;28;20463;-89
2022/09/29 07:43:29;;;;;;;9.53;8.53;;;11.50;99.90;;;;;;5073735;28;21031;-85
2022/09/29 07:45:56;;;;;;;9.70;7.67;;;11.60;99.90;;;;;;5062566;28;20450;-85
2022/09/29 07:48:22;;;;;;;10.83;7.60;;;11.70;99.90;;;;;;5063718;28;20499;-85
2022/09/29 07:50:51;;;;;;;8.53;6.50;;;11.70;99.90;;;;;;5076336;28;20445;-85
2022/09/29 07:53:18;;;;;;;7.63;6.40;;;11.80;99.90;;;;;;5061480;28;20491;-85
2022/09/29 07:55:46;;;;;;;15.37;8.33;;;11.70;99.90;;;;;;5059977;28;20827;-85
2022/09/29 07:58:13;;;;;;;10.17;8.90;;;11.80;99.90;;;;;;5059439;28;20475;-85
2022/09/29 08:00:40;;;;;;;10.50;7.60;;;12.00;99.90;;;;;;5061283;28;20499;-86
2022/09/29 08:03:07;;;;;;;9.53;7.23;;;12.20;99.90;;;;;;5059655;28;20447;-86
2022/09/29 08:05:35;;;;;;;7.13;5.57;;;12.40;99.90;;;;;;5061177;28;20444;-86
2022/09/29 08:08:03;;;;;;;9.77;8.77;;;12.80;99.90;;;;;;5096668;22;20530;-86
2022/09/29 08:10:30;;;;;;;11.70;8.77;;;13.10;99.90;;;;;;5077067;28;20926;-84
2022/09/29 08:12:58;;;;;;;14.70;8.77;;;13.20;99.90;;;;;;5076022;28;20440;-85
2022/09/29 08:15:25;;;;;;;10.77;5.87;;;13.30;99.90;;;;;;5075444;28;20447;-85
2022/09/29 08:17:53;;;;;;;7.30;6.60;;;13.50;99.90;;;;;;5075214;28;20483;-82
2022/09/29 08:20:20;;;;;;;10.30;5.60;;;13.50;99.90;;;;;;5088194;28;20447;-85
2022/09/29 08:22:47;;;;;;;6.70;6.00;;;13.50;99.90;;;;;;5084251;28;20786;-85
2022/09/29 08:25:14;;;;;;;7.03;5.90;;;13.60;99.90;;;;;;5085641;28;20456;-83
2022/09/29 08:27:40;;;;;;;8.43;6.27;;;13.60;99.90;;;;;;5079818;28;20464;-86
2022/09/29 08:30:10;;;;;;;7.77;5.93;;;13.60;99.90;;;;;;5080669;28;20972;-86
2022/09/29 08:32:37;;;;;;;10.40;6.00;;;13.80;99.90;;;;;;5079014;28;20444;-87
2022/09/29 08:35:05;;;;;;;8.83;5.97;;;13.50;99.90;;;;;;5077739;28;20458;-84
2022/09/29 08:37:31;;;;;;;11.00;6.37;;;13.80;99.90;;;;;;5077373;28;20838;-85
2022/09/29 08:39:58;;;;;;;9.13;7.37;;;14.10;99.90;;;;;;5077440;28;20488;-85
2022/09/29 08:42:35;;;;;;;7.13;5.40;;;14.70;99.90;;;;;;5078064;28;20484;-86
2022/09/29 08:45:07;;;;;;;8.57;6.17;;;14.90;99.90;;;;;;5081461;28;20439;-87
2022/09/29 08:47:38;;;;;;;9.50;7.07;;;14.90;99.90;;;;;;5077153;28;20455;-85
2022/09/29 08:50:12;;;;;;;9.17;6.30;;;14.70;99.90;;;;;;5076450;28;20794;-85
2022/09/29 08:52:42;;;;;;;6.90;5.23;;;15.30;99.90;;;;;;5076938;28;20444;-85
2022/09/29 08:55:23;;;;;;;7.23;5.30;;;15.90;99.90;;;;;;5076024;28;20486;-85
2022/09/29 08:57:55;;;;;;;5.90;5.33;;;16.40;99.90;;;;;;5085740;28;20554;-83
2022/09/29 09:00:30;;;;;;;14.30;6.70;;;16.50;99.90;;;;;;5092233;28;20990;-85
2022/09/29 09:03:13;;;;;;;5.93;4.50;;;16.70;99.90;;;;;;5083348;28;20444;-82
2022/09/29 09:06:01;;;;;;;7.10;5.87;;;17.10;99.00;;;;;;5082554;28;20905;-85
2022/09/29 09:08:42;;;;;;;6.87;4.93;;;17.30;97.40;;;;;;5076479;28;20503;-83
2022/09/29 09:11:23;;;;;;;6.83;6.13;;;18.40;96.10;;;;;;5088933;28;20443;-82
2022/09/29 09:14:03;;;;;;;5.07;4.57;;;20.00;93.70;;;;;;5087647;28;20452;-84
2022/09/29 09:16:37;;;;;;;7.03;5.53;;;21.30;89.60;;;;;;5077768;28;20448;-84
2022/09/29 09:19:27;;;;;;;5.50;4.97;;;21.70;86.10;;;;;;5076580;28;20483;-85
2022/09/29 09:22:01;;;;;;;10.17;5.40;;;22.10;80.80;;;;;;5076882;28;20440;-84
2022/09/29 09:24:37;;;;;;;5.90;4.63;;;20.90;81.50;;;;;;5076989;28;20444;-84
2022/09/29 09:27:04;;;;;;;6.17;4.90;;;20.30;83.70;;;;;;5077496;28;20444;-84
2022/09/29 09:29:35;;;;;;;6.00;4.60;;;19.60;85.10;;;;;;5078943;28;20521;-84
2022/09/29 09:32:07;;;;;;;9.53;4.80;;;18.90;87.10;;;;;;5077953;28;20459;-85
2022/09/29 09:34:40;;;;;;;4.73;4.10;;;18.40;90.10;;;;;;5079476;28;20450;-83
2022/09/29 09:37:12;;;;;;;10.60;5.60;;;18.10;90.80;;;;;;5087509;28;20973;-86
2022/09/29 09:39:45;;;;;;;7.00;5.90;;;17.70;91.50;;;;;;5080722;28;20479;-85
2022/09/29 09:42:18;;;;;;;8.90;4.90;;;17.00;91.80;;;;;;5077927;28;20451;-84
2022/09/29 09:44:48;;;;;;;5.80;4.90;;;16.70;93.20;;;;;;5077097;28;20463;-85
2022/09/29 09:47:24;;;;;;;6.60;4.60;;;16.80;93.70;;;;;;5076342;28;20455;-84
2022/09/29 09:49:57;;;;;;;9.23;4.87;;;16.90;93.90;;;;;;5085740;28;20439;-83
2022/09/29 09:52:29;;;;;;;7.70;5.60;;;16.80;93.60;;;;;;5083714;28;20491;-87
2022/09/29 09:54:59;;;;;;;6.50;5.00;;;16.40;94.50;;;;;;5076619;28;20456;-85
2022/09/29 09:57:59;;;;;;;7.80;4.37;;;16.50;94.30;;;;;;5076247;28;20447;-86
2022/09/29 10:00:30;;;;;;;4.93;4.43;;;16.30;94.90;;;;;;5076231;28;20487;-85
2022/09/29 10:03:01;;;;;;;5.00;3.60;;;16.60;95.20;;;;;;5076269;28;20854;-86
2022/09/29 10:05:36;;;;;;;6.37;4.23;;;16.70;94.40;;;;;;5077955;28;20947;-84
2022/09/29 10:08:04;;;;;;;5.57;4.57;;;17.00;94.00;;;;;;5081095;28;20503;-86
2022/09/29 10:10:31;;;;;;;6.90;4.53;;;17.40;94.00;;;;;;5077766;28;20447;-85
2022/09/29 10:13:02;;;;;;;4.40;3.87;;;17.60;92.90;;;;;;5077104;28;20451;-86
2022/09/29 10:15:33;;;;;;;5.47;4.27;;;18.00;92.80;;;;;;5076109;28;20452;-86
2022/09/29 10:18:05;;;;;;;4.97;4.17;;;18.00;92.40;;;;;;5076713;28;20665;-85
2022/09/29 10:20:36;;;;;;;4.83;3.93;;;17.80;92.00;;;;;;5076343;28;20484;-85
2022/09/29 10:23:26;;;;;;;5.60;4.43;;;17.10;92.30;;;;;;5076828;28;20444;-85
2022/09/29 10:25:57;;;;;;;6.63;3.87;;;16.90;93.50;;;;;;5083181;28;20443;-84
2022/09/29 10:28:26;;;;;;;4.90;3.90;;;16.80;93.90;;;;;;5084361;28;20467;-86
2022/09/29 10:30:54;;;;;;;6.50;4.30;;;17.20;93.90;;;;;;5077814;28;20428;-85
2022/09/29 10:33:24;;;;;;;5.50;4.77;;;17.80;92.80;;;;;;5076292;28;20444;-84
2022/09/29 10:36:05;;;;;;;6.97;4.30;;;18.60;91.60;;;;;;5076731;28;20440;-85
2022/09/29 10:38:32;;;;;;;4.70;3.47;;;20.40;89.60;;;;;;5076418;28;20467;-84
2022/09/29 10:41:03;;;;;;;5.57;4.03;;;22.20;82.40;;;;;;5083238;28;20448;-84
2022/09/29 10:43:36;;;;;;;4.63;3.73;;;24.00;76.50;;;;;;5080331;28;20479;-86
2022/09/29 10:46:03;;;;;;;3.90;3.50;;;25.70;68.10;;;;;;5076195;28;20451;-86
2022/09/29 10:48:30;;;;;;;5.53;3.80;;;26.60;63.20;;;;;;5075343;28;20989;-84
2022/09/29 10:51:01;;;;;;;6.77;3.60;;;26.80;60.10;;;;;;5076252;28;20448;-85
2022/09/29 10:53:36;;;;;;;6.33;3.80;;;27.30;57.90;;;;;;5074651;28;20441;-85
2022/09/29 10:56:09;;;;;;;3.00;2.70;;;26.70;56.60;;;;;;5075536;28;20527;-85
2022/09/29 10:58:40;;;;;;;5.37;3.40;;;24.70;59.60;;;;;;5079124;28;20462;-85
2022/09/29 11:01:10;;;;;;;7.40;4.20;;;24.70;60.00;;;;;;5081823;28;20926;-86
2022/09/29 11:03:40;;;;;;;3.80;3.07;;;24.60;60.60;;;;;;5080247;28;20452;-83
2022/09/29 11:06:11;;;;;;;3.70;3.20;;;24.40;60.60;;;;;;5079295;28;20947;-85
2022/09/29 11:08:57;;;;;;;4.50;3.27;;;24.50;60.60;;;;;;5085720;28;20483;-85
2022/09/29 11:11:27;;;;;;;4.27;2.80;;;24.20;60.70;;;;;;5079792;28;20447;-85
2022/09/29 11:13:55;;;;;;;5.13;3.10;;;24.20;60.70;;;;;;5081585;28;20479;-84
2022/09/29 11:16:28;;;;;;;5.03;3.23;;;24.30;60.80;;;;;;5080606;28;20488;-85
2022/09/29 11:18:59;;;;;;;3.20;2.33;;;24.10;59.30;;;;;;5079926;28;20515;-84
2022/09/29 11:21:59;;;;;;;5.60;2.60;;;23.40;58.60;;;;;;5082464;28;20444;-85
2022/09/29 11:24:47;;;;;;;4.53;3.23;;;22.20;60.20;;;;;;5091452;28;20444;-83
2022/09/29 11:27:23;;;;;;;4.50;3.17;;;21.40;65.50;;;;;;5092170;28;20448;-85
2022/09/29 11:29:59;;;;;;;3.43;2.83;;;21.50;65.90;;;;;;5084763;28;20439;-84
2022/09/29 11:32:41;;;;;;;4.10;2.77;;;22.10;64.90;;;;;;5082596;28;20443;-83
2022/09/29 11:35:26;;;;;;;3.40;2.00;;;22.20;64.90;;;;;;5084579;28;20945;-84
2022/09/29 11:38:25;;;;;;;5.07;2.70;;;22.00;63.70;;;;;;5080869;28;20475;-84
2022/09/29 11:41:04;;;;;;;4.13;2.70;;;21.70;64.60;;;;;;5080656;28;20487;-83
2022/09/29 11:43:44;;;;;;;5.20;2.73;;;21.80;64.40;;;;;;5082100;28;20470;-85
2022/09/29 11:46:32;;;;;;;4.47;2.70;;;21.20;62.50;;;;;;5081075;28;20456;-84
2022/09/29 11:49:12;;;;;;;4.07;2.40;;;21.50;64.20;;;;;;5085392;28;20454;-85
2022/09/29 11:51:53;;;;;;;5.07;2.57;;;21.50;63.30;;;;;;5079894;28;20527;-86
2022/09/29 11:54:33;;;;;;;3.07;2.30;;;21.50;63.10;;;;;;5080218;28;20443;-85
2022/09/29 11:57:04;;;;;;;5.50;2.90;;;20.90;64.10;;;;;;5079813;28;20443;-85
2022/09/29 11:59:54;;;;;;;3.77;2.50;;;20.90;63.30;;;;;;5087584;28;20487;-86
2022/09/29 12:02:49;;;;;;;4.90;2.70;;;21.20;65.30;;;;;;5083663;28;20455;-84
2022/09/29 12:05:22;;;;;;;4.03;1.97;;;21.70;63.60;;;;;;5088294;28;20964;-87
2022/09/29 12:07:58;;;;;;;3.47;2.30;;;22.00;62.70;;;;;;5082845;28;20478;-84
2022/09/29 12:10:42;;;;;;;4.30;2.30;;;22.50;60.20;;;;;;5080307;28;20443;-83
2022/09/29 12:13:19;;;;;;;5.77;2.13;;;22.30;59.60;;;;;;5079591;28;21002;-83
2022/09/29 12:15:52;;;;;;;3.23;1.80;;;21.80;59.60;;;;;;5083143;28;20508;-83
2022/09/29 12:18:23;;;;;;;3.90;2.60;;;21.40;59.90;;;;;;5083257;28;20606;-85
2022/09/29 12:20:53;;;;;;;5.90;2.50;;;21.00;59.70;;;;;;5079493;28;20856;-85
2022/09/29 12:23:24;;;;;;;7.27;2.33;;;20.80;61.10;;;;;;5079049;28;20452;-85
2022/09/29 12:25:58;;;;;;;4.67;2.33;;;21.00;60.30;;;;;;5079179;28;21014;-85
2022/09/29 12:28:30;;;;;;;4.07;2.07;;;21.10;60.50;;;;;;5081743;28;20874;-84
2022/09/29 12:31:02;;;;;;;3.23;2.40;;;20.70;60.00;;;;;;5078026;28;20443;-83
2022/09/29 12:33:33;;;;;;;3.57;2.00;;;20.30;62.90;;;;;;5077677;28;20444;-84
2022/09/29 12:38:58;;;;;;;3.30;2.10;;;20.20;62.70;;;;;;5075722;28;20454;-84
2022/09/29 12:41:34;;;;;;;4.40;2.37;;;20.80;62.60;;;;;;5076722;28;20451;-84
2022/09/29 12:44:10;;;;;;;3.00;1.87;;;21.30;60.40;;;;;;5076670;28;20466;-84
2022/09/29 12:46:44;;;;;;;4.73;2.07;;;21.70;59.10;;;;;;5076707;28;20470;-84
2022/09/29 12:49:19;;;;;;;4.00;2.57;;;21.80;58.20;;;;;;5078652;28;20464;-85
2022/09/29 12:51:47;;;;;;;3.50;2.00;;;21.10;58.80;;;;;;5077442;28;20549;-85
2022/09/29 12:54:19;;;;;;;3.20;2.07;;;21.20;59.10;;;;;;5077968;28;20840;-84
2022/09/29 12:56:53;;;;;;;3.70;1.87;;;21.90;58.90;;;;;;5077959;28;20458;-85
2022/09/29 12:59:29;;;;;;;4.20;1.73;;;21.90;58.20;;;;;;5077985;28;20523;-84
2022/09/29 13:01:57;;;;;;;2.53;1.93;;;21.90;57.70;;;;;;5077454;28;20432;-84
2022/09/29 13:04:53;;;;;;;3.37;1.80;;;21.40;57.50;;;;;;5083940;28;20818;-83
2022/09/29 13:07:43;;;;;;;6.10;2.20;;;20.70;58.60;;;;;;5082624;28;20451;-84